< < Back
Terminal Aerodrome Forecast


Current Version              Previous Versions:   1  2  3  4  5  6  7  8  9  

Terminal Aerodrome Forecast

417
FTUS42 KGSP 240500 RRA
TAFHKY
TAF
KHKY 240542Z 2406/2506 00000KT P6SM BKN070
     FM241500 00000KT P6SM BKN060 PROB30 2415/2416 4SM TSRA BKN040CB
     FM241900 22006KT P6SM -SHRA VCTS BKN050CB
     FM242200 24005KT P6SM BKN050 PROB30 2422/2424 4SM TSRA BKN040CB
     FM250400 32003KT P6SM SCT045=

Latest METAR

782
SAUS70 KWBC 241300 RRC
MTRHKY
METAR KHKY 241253Z 30003KT 10SM BKN090 23/21 A2997 RMK AO2 SLP125
T02280206


USA.gov is the U.S. government's official web portal to all federal, state and local government web resources and services.